sensor_id;sensor_type;location;lat;lon;timestamp;pressure;altitude;pressure_sealevel;temperature;humidity
11347;BME280;5728;42.722;23.258;2023-05-08T00:00:58;94926.03;;;13.23;83.16
11347;BME280;5728;42.722;23.258;2023-05-08T00:03:25;94919.22;;;13.53;81.27
11347;BME280;5728;42.722;23.258;2023-05-08T00:05:53;94924.78;;;13.74;80.17
11347;BME280;5728;42.722;23.258;2023-05-08T00:08:20;94919.03;;;13.62;80.46
11347;BME280;5728;42.722;23.258;2023-05-08T00:10:47;94916.78;;;13.47;80.88
11347;BME280;5728;42.722;23.258;2023-05-08T00:13:14;94916.84;;;13.43;81.18
11347;BME280;5728;42.722;23.258;2023-05-08T00:15:41;94919.25;;;12.76;84.73
11347;BME280;5728;42.722;23.258;2023-05-08T00:18:08;94919.84;;;13.27;83.28
11347;BME280;5728;42.722;23.258;2023-05-08T00:20:35;94921.16;;;13.44;81.83
11347;BME280;5728;42.722;23.258;2023-05-08T00:23:03;94922.31;;;13.33;82.20
11347;BME280;5728;42.722;23.258;2023-05-08T00:25:30;94928.47;;;12.91;84.54
11347;BME280;5728;42.722;23.258;2023-05-08T00:27:57;94928.97;;;13.08;83.93
11347;BME280;5728;42.722;23.258;2023-05-08T00:30:24;94934.06;;;13.12;83.51
11347;BME280;5728;42.722;23.258;2023-05-08T00:32:50;94932.91;;;12.44;85.93
11347;BME280;5728;42.722;23.258;2023-05-08T00:35:17;94931.94;;;12.50;86.62
11347;BME280;5728;42.722;23.258;2023-05-08T00:37:44;94929.72;;;12.73;85.30
11347;BME280;5728;42.722;23.258;2023-05-08T00:40:12;94938.06;;;12.47;86.66
11347;BME280;5728;42.722;23.258;2023-05-08T00:42:39;94935.41;;;12.04;88.75
11347;BME280;5728;42.722;23.258;2023-05-08T00:45:07;94942.53;;;12.41;87.36
11347;BME280;5728;42.722;23.258;2023-05-08T00:47:34;94934.06;;;12.30;86.62
11347;BME280;5728;42.722;23.258;2023-05-08T00:50:01;94939.56;;;12.14;88.18
11347;BME280;5728;42.722;23.258;2023-05-08T00:52:30;94936.91;;;12.18;88.09
11347;BME280;5728;42.722;23.258;2023-05-08T00:54:59;94939.69;;;12.51;86.74
11347;BME280;5728;42.722;23.258;2023-05-08T00:57:28;94941.31;;;12.57;85.29
11347;BME280;5728;42.722;23.258;2023-05-08T00:59:56;94946.56;;;12.54;85.91
11347;BME280;5728;42.722;23.258;2023-05-08T01:02:23;94940.41;;;12.59;85.43
11347;BME280;5728;42.722;23.258;2023-05-08T01:04:51;94948.59;;;12.40;86.59
11347;BME280;5728;42.722;23.258;2023-05-08T01:07:19;94943.25;;;12.01;88.10
11347;BME280;5728;42.722;23.258;2023-05-08T01:09:47;94947.47;;;12.08;88.50
11347;BME280;5728;42.722;23.258;2023-05-08T01:12:16;94948.56;;;11.97;88.64
11347;BME280;5728;42.722;23.258;2023-05-08T01:15:03;94950.25;;;11.99;89.35
11347;BME280;5728;42.722;23.258;2023-05-08T01:17:39;94948.94;;;11.74;89.85
11347;BME280;5728;42.722;23.258;2023-05-08T01:20:17;94946.25;;;11.80;89.88
11347;BME280;5728;42.722;23.258;2023-05-08T01:23:16;94947.31;;;11.70;90.74
11347;BME280;5728;42.722;23.258;2023-05-08T01:29:26;94942.22;;;11.61;91.98
11347;BME280;5728;42.722;23.258;2023-05-08T01:32:13;94944.72;;;11.66;90.84
11347;BME280;5728;42.722;23.258;2023-05-08T01:34:48;94946.91;;;11.39;92.02
11347;BME280;5728;42.722;23.258;2023-05-08T01:37:17;94941.44;;;11.58;91.28
11347;BME280;5728;42.722;23.258;2023-05-08T01:39:54;94937.66;;;11.22;92.85
11347;BME280;5728;42.722;23.258;2023-05-08T01:42:27;94935.91;;;11.24;93.36
11347;BME280;5728;42.722;23.258;2023-05-08T01:44:59;94930.66;;;11.27;93.23
11347;BME280;5728;42.722;23.258;2023-05-08T01:47:32;94930.66;;;11.27;93.04
11347;BME280;5728;42.722;23.258;2023-05-08T01:50:03;94925.13;;;11.48;92.74
11347;BME280;5728;42.722;23.258;2023-05-08T01:52:34;94938.41;;;11.30;91.89
11347;BME280;5728;42.722;23.258;2023-05-08T01:55:03;94933.59;;;11.04;93.96
11347;BME280;5728;42.722;23.258;2023-05-08T01:57:33;94940.72;;;10.92;95.16
11347;BME280;5728;42.722;23.258;2023-05-08T02:00:02;94940.09;;;11.32;93.57
11347;BME280;5728;42.722;23.258;2023-05-08T02:02:32;94933.69;;;11.54;92.25
11347;BME280;5728;42.722;23.258;2023-05-08T02:05:01;94933.38;;;11.74;90.74
11347;BME280;5728;42.722;23.258;2023-05-08T02:07:31;94931.50;;;11.82;89.72
11347;BME280;5728;42.722;23.258;2023-05-08T02:10:00;94932.91;;;11.98;89.29
11347;BME280;5728;42.722;23.258;2023-05-08T02:12:29;94939.88;;;11.96;88.51
11347;BME280;5728;42.722;23.258;2023-05-08T02:14:58;94940.50;;;12.10;87.11
11347;BME280;5728;42.722;23.258;2023-05-08T02:17:26;94937.97;;;12.07;88.09
11347;BME280;5728;42.722;23.258;2023-05-08T02:19:55;94947.44;;;12.10;88.11
11347;BME280;5728;42.722;23.258;2023-05-08T02:22:24;94941.28;;;12.15;87.81
11347;BME280;5728;42.722;23.258;2023-05-08T02:24:52;94944.22;;;12.42;86.01
11347;BME280;5728;42.722;23.258;2023-05-08T02:27:21;94948.38;;;12.07;87.12
11347;BME280;5728;42.722;23.258;2023-05-08T02:29:51;94941.97;;;12.25;86.60
11347;BME280;5728;42.722;23.258;2023-05-08T02:32:19;94933.00;;;12.40;85.77
11347;BME280;5728;42.722;23.258;2023-05-08T02:34:47;94934.06;;;12.30;86.41
11347;BME280;5728;42.722;23.258;2023-05-08T02:37:19;94933.09;;;12.34;85.98
11347;BME280;5728;42.722;23.258;2023-05-08T02:39:48;94943.00;;;12.59;84.90
11347;BME280;5728;42.722;23.258;2023-05-08T02:42:17;94941.47;;;12.51;84.67
11347;BME280;5728;42.722;23.258;2023-05-08T02:44:44;94953.38;;;12.16;85.74
11347;BME280;5728;42.722;23.258;2023-05-08T02:47:15;94954.03;;;12.28;86.26
11347;BME280;5728;42.722;23.258;2023-05-08T02:49:49;94955.69;;;12.32;85.97
11347;BME280;5728;42.722;23.258;2023-05-08T02:52:22;94948.09;;;12.23;85.92
11347;BME280;5728;42.722;23.258;2023-05-08T02:54:55;94954.91;;;12.27;85.96
11347;BME280;5728;42.722;23.258;2023-05-08T02:57:32;94950.06;;;12.08;86.11
11347;BME280;5728;42.722;23.258;2023-05-08T03:00:04;94945.91;;;12.00;85.92
11347;BME280;5728;42.722;23.258;2023-05-08T03:02:37;94944.31;;;11.93;86.50
11347;BME280;5728;42.722;23.258;2023-05-08T03:05:12;94950.13;;;11.55;88.31
11347;BME280;5728;42.722;23.258;2023-05-08T03:07:42;94945.72;;;11.60;88.98
11347;BME280;5728;42.722;23.258;2023-05-08T03:10:11;94951.97;;;12.00;87.23
11347;BME280;5728;42.722;23.258;2023-05-08T03:12:44;94949.22;;;12.08;86.80
11347;BME280;5728;42.722;23.258;2023-05-08T03:15:13;94944.00;;;12.09;87.04
11347;BME280;5728;42.722;23.258;2023-05-08T03:17:45;94952.22;;;12.31;85.41
11347;BME280;5728;42.722;23.258;2023-05-08T03:20:15;94958.47;;;12.23;84.64
11347;BME280;5728;42.722;23.258;2023-05-08T03:22:45;94957.47;;;11.82;87.02
11347;BME280;5728;42.722;23.258;2023-05-08T03:25:16;94959.19;;;11.83;87.72
11347;BME280;5728;42.722;23.258;2023-05-08T03:27:44;94952.66;;;12.08;86.73
11347;BME280;5728;42.722;23.258;2023-05-08T03:30:12;94946.63;;;12.06;85.85
11347;BME280;5728;42.722;23.258;2023-05-08T03:32:41;94960.69;;;11.96;86.39
11347;BME280;5728;42.722;23.258;2023-05-08T03:35:10;94964.84;;;12.06;86.16
11347;BME280;5728;42.722;23.258;2023-05-08T03:37:37;94955.19;;;12.13;85.74
11347;BME280;5728;42.722;23.258;2023-05-08T03:40:07;94966.06;;;11.87;86.38
11347;BME280;5728;42.722;23.258;2023-05-08T03:42:35;94960.38;;;11.61;88.46
11347;BME280;5728;42.722;23.258;2023-05-08T03:45:03;94960.34;;;11.64;88.07
11347;BME280;5728;42.722;23.258;2023-05-08T03:47:31;94957.88;;;11.57;88.59
11347;BME280;5728;42.722;23.258;2023-05-08T03:49:59;94958.53;;;11.72;88.39
11347;BME280;5728;42.722;23.258;2023-05-08T03:52:26;94966.22;;;11.77;88.50
11347;BME280;5728;42.722;23.258;2023-05-08T03:54:53;94965.78;;;12.02;87.03
11347;BME280;5728;42.722;23.258;2023-05-08T03:57:21;94956.31;;;11.98;86.54
11347;BME280;5728;42.722;23.258;2023-05-08T04:00:01;94959.63;;;12.08;86.76
11347;BME280;5728;42.722;23.258;2023-05-08T04:02:34;94963.63;;;12.26;86.21
11347;BME280;5728;42.722;23.258;2023-05-08T04:05:09;94973.97;;;12.27;85.39
11347;BME280;5728;42.722;23.258;2023-05-08T04:07:47;94974.63;;;11.92;87.17
11347;BME280;5728;42.722;23.258;2023-05-08T04:10:21;94976.75;;;12.18;86.87
11347;BME280;5728;42.722;23.258;2023-05-08T04:12:56;94975.66;;;12.30;85.87
11347;BME280;5728;42.722;23.258;2023-05-08T04:15:26;94976.53;;;12.30;85.33
11347;BME280;5728;42.722;23.258;2023-05-08T04:17:56;94982.13;;;12.55;84.49
11347;BME280;5728;42.722;23.258;2023-05-08T04:20:26;94983.41;;;12.77;83.79
11347;BME280;5728;42.722;23.258;2023-05-08T04:22:56;94982.41;;;12.82;83.61
11347;BME280;5728;42.722;23.258;2023-05-08T04:25:24;94981.81;;;13.13;83.17
11347;BME280;5728;42.722;23.258;2023-05-08T04:27:53;94987.19;;;13.43;81.95
11347;BME280;5728;42.722;23.258;2023-05-08T04:30:22;94981.75;;;13.53;81.16
11347;BME280;5728;42.722;23.258;2023-05-08T04:32:49;94977.00;;;13.70;79.62
11347;BME280;5728;42.722;23.258;2023-05-08T04:35:16;94980.94;;;13.86;78.94
11347;BME280;5728;42.722;23.258;2023-05-08T04:37:44;94982.28;;;14.02;79.00
11347;BME280;5728;42.722;23.258;2023-05-08T04:40:11;94979.75;;;13.99;79.91
11347;BME280;5728;42.722;23.258;2023-05-08T04:42:38;94980.03;;;14.22;79.02
11347;BME280;5728;42.722;23.258;2023-05-08T04:45:09;94966.78;;;14.30;78.66
11347;BME280;5728;42.722;23.258;2023-05-08T04:47:36;94971.41;;;14.52;77.97
11347;BME280;5728;42.722;23.258;2023-05-08T04:50:03;94973.56;;;14.69;77.14
11347;BME280;5728;42.722;23.258;2023-05-08T04:52:30;94977.09;;;14.97;75.63
11347;BME280;5728;42.722;23.258;2023-05-08T04:54:57;94968.78;;;14.83;75.35
11347;BME280;5728;42.722;23.258;2023-05-08T04:57:24;94974.44;;;14.99;75.64
11347;BME280;5728;42.722;23.258;2023-05-08T04:59:51;94965.75;;;15.26;74.86
11347;BME280;5728;42.722;23.258;2023-05-08T05:02:19;94967.50;;;15.27;74.23
11347;BME280;5728;42.722;23.258;2023-05-08T05:04:45;94962.09;;;15.33;74.04
11347;BME280;5728;42.722;23.258;2023-05-08T05:07:12;94963.38;;;15.75;72.52
11347;BME280;5728;42.722;23.258;2023-05-08T05:09:39;94957.28;;;15.75;71.96
11347;BME280;5728;42.722;23.258;2023-05-08T05:12:06;94960.72;;;15.77;72.13
11347;BME280;5728;42.722;23.258;2023-05-08T05:14:32;94955.53;;;15.75;72.32
11347;BME280;5728;42.722;23.258;2023-05-08T05:16:59;94953.69;;;16.04;71.40
11347;BME280;5728;42.722;23.258;2023-05-08T05:19:27;94959.25;;;16.21;70.60
11347;BME280;5728;42.722;23.258;2023-05-08T05:21:54;94952.25;;;16.46;68.31
11347;BME280;5728;42.722;23.258;2023-05-08T05:24:21;94954.19;;;16.41;68.29
11347;BME280;5728;42.722;23.258;2023-05-08T05:26:48;94960.03;;;16.47;68.05
11347;BME280;5728;42.722;23.258;2023-05-08T05:29:14;94960.06;;;16.72;67.25
11347;BME280;5728;42.722;23.258;2023-05-08T05:31:41;94954.72;;;16.98;65.99
11347;BME280;5728;42.722;23.258;2023-05-08T05:34:08;94956.56;;;16.96;65.04
11347;BME280;5728;42.722;23.258;2023-05-08T05:36:36;94962.22;;;17.31;64.31
11347;BME280;5728;42.722;23.258;2023-05-08T05:39:03;94962.13;;;17.57;62.20
11347;BME280;5728;42.722;23.258;2023-05-08T05:41:29;94960.06;;;17.42;63.13
11347;BME280;5728;42.722;23.258;2023-05-08T05:43:56;94960.75;;;17.47;63.21
11347;BME280;5728;42.722;23.258;2023-05-08T05:46:23;94959.28;;;18.05;60.74
11347;BME280;5728;42.722;23.258;2023-05-08T05:48:55;94955.13;;;17.34;61.77
11347;BME280;5728;42.722;23.258;2023-05-08T05:51:22;94962.84;;;17.37;61.65
11347;BME280;5728;42.722;23.258;2023-05-08T05:53:50;94965.56;;;17.57;62.37
11347;BME280;5728;42.722;23.258;2023-05-08T05:56:16;94958.50;;;17.81;61.09
11347;BME280;5728;42.722;23.258;2023-05-08T05:58:43;94959.09;;;18.09;59.54
11347;BME280;5728;42.722;23.258;2023-05-08T06:01:10;94952.31;;;17.39;59.87
11347;BME280;5728;42.722;23.258;2023-05-08T06:03:37;94956.09;;;17.32;60.96
11347;BME280;5728;42.722;23.258;2023-05-08T06:06:04;94946.78;;;17.68;60.99
11347;BME280;5728;42.722;23.258;2023-05-08T06:08:31;94948.34;;;18.15;59.43
11347;BME280;5728;42.722;23.258;2023-05-08T06:10:59;94941.09;;;18.00;58.51
11347;BME280;5728;42.722;23.258;2023-05-08T06:13:26;94943.00;;;17.75;59.48
11347;BME280;5728;42.722;23.258;2023-05-08T06:15:53;94944.81;;;17.74;60.18
11347;BME280;5728;42.722;23.258;2023-05-08T06:18:21;94943.38;;;18.29;58.35
11347;BME280;5728;42.722;23.258;2023-05-08T06:20:48;94946.69;;;18.33;58.27
11347;BME280;5728;42.722;23.258;2023-05-08T06:23:20;94941.13;;;18.40;58.08
11347;BME280;5728;42.722;23.258;2023-05-08T06:25:46;94942.88;;;18.62;56.73
11347;BME280;5728;42.722;23.258;2023-05-08T06:28:15;94952.66;;;17.96;58.28
11347;BME280;5728;42.722;23.258;2023-05-08T06:30:41;94946.63;;;17.94;59.31
11347;BME280;5728;42.722;23.258;2023-05-08T06:33:08;94945.53;;;18.40;59.00
11347;BME280;5728;42.722;23.258;2023-05-08T06:35:35;94956.75;;;18.84;57.27
11347;BME280;5728;42.722;23.258;2023-05-08T06:38:02;94951.50;;;18.84;57.26
11347;BME280;5728;42.722;23.258;2023-05-08T06:40:28;94954.97;;;19.04;57.14
11347;BME280;5728;42.722;23.258;2023-05-08T06:42:55;94949.13;;;18.98;56.62
11347;BME280;5728;42.722;23.258;2023-05-08T06:45:23;94953.31;;;19.41;55.57
11347;BME280;5728;42.722;23.258;2023-05-08T06:47:50;94952.47;;;19.40;56.37
11347;BME280;5728;42.722;23.258;2023-05-08T06:50:17;94943.25;;;19.67;54.52
11347;BME280;5728;42.722;23.258;2023-05-08T06:52:44;94946.41;;;19.93;54.06
11347;BME280;5728;42.722;23.258;2023-05-08T06:55:10;94952.97;;;19.48;54.10
11347;BME280;5728;42.722;23.258;2023-05-08T06:57:37;94958.19;;;19.67;54.38
11347;BME280;5728;42.722;23.258;2023-05-08T07:00:04;94955.69;;;19.83;53.60
11347;BME280;5728;42.722;23.258;2023-05-08T07:02:33;94958.41;;;19.62;53.90
11347;BME280;5728;42.722;23.258;2023-05-08T07:04:59;94965.44;;;19.81;54.85
11347;BME280;5728;42.722;23.258;2023-05-08T07:07:27;94967.94;;;19.84;53.36
11347;BME280;5728;42.722;23.258;2023-05-08T07:09:53;94965.50;;;19.79;54.10
11347;BME280;5728;42.722;23.258;2023-05-08T07:12:20;94957.06;;;19.72;53.89
11347;BME280;5728;42.722;23.258;2023-05-08T07:14:47;94966.88;;;19.50;55.36
11347;BME280;5728;42.722;23.258;2023-05-08T07:17:14;94958.31;;;19.08;56.71
11347;BME280;5728;42.722;23.258;2023-05-08T07:19:42;94953.09;;;19.06;56.37
11347;BME280;5728;42.722;23.258;2023-05-08T07:22:09;94969.00;;;18.85;57.05
11347;BME280;5728;42.722;23.258;2023-05-08T07:24:36;94953.53;;;19.16;56.44
11347;BME280;5728;42.722;23.258;2023-05-08T07:27:03;94950.56;;;19.05;56.23
11347;BME280;5728;42.722;23.258;2023-05-08T07:29:29;94956.31;;;18.74;55.81
11347;BME280;5728;42.722;23.258;2023-05-08T07:31:56;94959.41;;;18.64;56.49
11347;BME280;5728;42.722;23.258;2023-05-08T07:34:22;94955.13;;;19.20;55.83
11347;BME280;5728;42.722;23.258;2023-05-08T07:36:51;94962.03;;;19.41;54.08
11347;BME280;5728;42.722;23.258;2023-05-08T07:39:17;94957.28;;;19.49;54.46
11347;BME280;5728;42.722;23.258;2023-05-08T07:41:44;94959.53;;;19.76;53.10
11347;BME280;5728;42.722;23.258;2023-05-08T07:44:11;94961.13;;;19.42;54.18
11347;BME280;5728;42.722;23.258;2023-05-08T07:46:38;94962.84;;;19.79;54.13
11347;BME280;5728;42.722;23.258;2023-05-08T07:49:04;94963.69;;;19.62;55.11
11347;BME280;5728;42.722;23.258;2023-05-08T07:51:31;94968.59;;;20.06;55.87
11347;BME280;5728;42.722;23.258;2023-05-08T07:54:00;94952.69;;;20.26;54.76
11347;BME280;5728;42.722;23.258;2023-05-08T07:56:26;94955.31;;;20.60;53.50
11347;BME280;5728;42.722;23.258;2023-05-08T07:58:53;94959.22;;;21.03;52.98
11347;BME280;5728;42.722;23.258;2023-05-08T08:01:20;94965.06;;;21.25;52.50
11347;BME280;5728;42.722;23.258;2023-05-08T08:03:47;94967.94;;;19.65;54.54
11347;BME280;5728;42.722;23.258;2023-05-08T08:06:14;94967.53;;;19.55;55.42
11347;BME280;5728;42.722;23.258;2023-05-08T08:08:42;94970.38;;;19.51;56.26
11347;BME280;5728;42.722;23.258;2023-05-08T08:11:10;94972.03;;;19.33;56.00
11347;BME280;5728;42.722;23.258;2023-05-08T08:13:37;94965.56;;;19.96;55.58
11347;BME280;5728;42.722;23.258;2023-05-08T08:16:05;94957.78;;;20.80;53.84
11347;BME280;5728;42.722;23.258;2023-05-08T08:18:33;94962.22;;;21.13;53.08
11347;BME280;5728;42.722;23.258;2023-05-08T08:21:03;94951.47;;;21.33;52.10
11347;BME280;5728;42.722;23.258;2023-05-08T08:23:30;94960.09;;;21.52;51.14
11347;BME280;5728;42.722;23.258;2023-05-08T08:25:57;94966.09;;;21.87;51.25
11347;BME280;5728;42.722;23.258;2023-05-08T08:28:25;94960.88;;;21.70;50.89
11347;BME280;5728;42.722;23.258;2023-05-08T08:30:52;94953.19;;;21.65;52.61
11347;BME280;5728;42.722;23.258;2023-05-08T08:33:19;94949.72;;;21.65;52.10
11347;BME280;5728;42.722;23.258;2023-05-08T08:35:46;94954.81;;;21.83;50.50
11347;BME280;5728;42.722;23.258;2023-05-08T08:38:12;94945.56;;;22.07;51.51
11347;BME280;5728;42.722;23.258;2023-05-08T08:40:39;94943.16;;;22.03;51.31
11347;BME280;5728;42.722;23.258;2023-05-08T08:43:06;94933.94;;;21.47;51.91
11347;BME280;5728;42.722;23.258;2023-05-08T08:45:35;94931.72;;;21.40;52.54
11347;BME280;5728;42.722;23.258;2023-05-08T08:48:03;94934.88;;;21.78;52.54
11347;BME280;5728;42.722;23.258;2023-05-08T08:50:31;94920.69;;;21.96;52.22
11347;BME280;5728;42.722;23.258;2023-05-08T08:53:01;94917.75;;;22.16;51.39
11347;BME280;5728;42.722;23.258;2023-05-08T08:55:31;94913.88;;;22.07;51.76
11347;BME280;5728;42.722;23.258;2023-05-08T08:58:09;94916.53;;;21.92;51.59
11347;BME280;5728;42.722;23.258;2023-05-08T09:00:39;94913.38;;;21.54;53.47
11347;BME280;5728;42.722;23.258;2023-05-08T09:03:06;94915.63;;;22.22;52.32
11347;BME280;5728;42.722;23.258;2023-05-08T09:05:33;94905.50;;;22.15;52.41
11347;BME280;5728;42.722;23.258;2023-05-08T09:08:01;94900.16;;;22.31;52.49
11347;BME280;5728;42.722;23.258;2023-05-08T09:10:28;94890.03;;;22.23;51.75
11347;BME280;5728;42.722;23.258;2023-05-08T09:12:54;94882.06;;;22.39;51.43
11347;BME280;5728;42.722;23.258;2023-05-08T09:15:21;94866.75;;;22.30;51.24
11347;BME280;5728;42.722;23.258;2023-05-08T09:17:49;94878.34;;;22.71;51.24
11347;BME280;5728;42.722;23.258;2023-05-08T09:20:26;94870.56;;;22.54;51.79
11347;BME280;5728;42.722;23.258;2023-05-08T09:23:00;94886.75;;;22.34;52.93
11347;BME280;5728;42.722;23.258;2023-05-08T09:25:40;94881.69;;;22.45;52.27
11347;BME280;5728;42.722;23.258;2023-05-08T09:28:17;94879.31;;;22.84;51.94
11347;BME280;5728;42.722;23.258;2023-05-08T09:30:48;94888.84;;;22.86;50.99
11347;BME280;5728;42.722;23.258;2023-05-08T09:33:17;94891.88;;;22.51;51.66
11347;BME280;5728;42.722;23.258;2023-05-08T09:35:44;94902.59;;;22.63;51.95
11347;BME280;5728;42.722;23.258;2023-05-08T09:38:34;94897.66;;;22.73;51.06
11347;BME280;5728;42.722;23.258;2023-05-08T09:41:11;94906.88;;;22.66;51.45
11347;BME280;5728;42.722;23.258;2023-05-08T09:43:40;94894.22;;;22.71;51.11
11347;BME280;5728;42.722;23.258;2023-05-08T09:46:22;94895.50;;;22.50;52.12
11347;BME280;5728;42.722;23.258;2023-05-08T09:48:52;94892.72;;;22.67;51.85
11347;BME280;5728;42.722;23.258;2023-05-08T09:51:20;94891.44;;;22.88;51.61
11347;BME280;5728;42.722;23.258;2023-05-08T09:53:49;94887.44;;;22.67;50.64
11347;BME280;5728;42.722;23.258;2023-05-08T09:56:30;94887.59;;;22.64;51.99
11347;BME280;5728;42.722;23.258;2023-05-08T09:58:57;94888.19;;;23.11;51.98
11347;BME280;5728;42.722;23.258;2023-05-08T10:01:29;94877.63;;;22.83;51.95
11347;BME280;5728;42.722;23.258;2023-05-08T10:03:57;94880.72;;;23.32;51.04
11347;BME280;5728;42.722;23.258;2023-05-08T10:06:25;94879.81;;;22.61;51.17
11347;BME280;5728;42.722;23.258;2023-05-08T10:09:12;94888.84;;;22.86;51.73
11347;BME280;5728;42.722;23.258;2023-05-08T10:11:40;94880.06;;;22.72;52.08
11347;BME280;5728;42.722;23.258;2023-05-08T10:14:08;94877.50;;;22.99;51.63
11347;BME280;5728;42.722;23.258;2023-05-08T10:16:39;94868.91;;;22.81;52.40
11347;BME280;5728;42.722;23.258;2023-05-08T10:19:11;94871.28;;;23.14;51.12
11347;BME280;5728;42.722;23.258;2023-05-08T10:21:40;94867.53;;;22.46;54.03
11347;BME280;5728;42.722;23.258;2023-05-08T10:24:12;94868.94;;;23.09;51.63
11347;BME280;5728;42.722;23.258;2023-05-08T10:26:42;94868.06;;;23.23;51.67
11347;BME280;5728;42.722;23.258;2023-05-08T10:29:15;94857.03;;;23.71;50.74
11347;BME280;5728;42.722;23.258;2023-05-08T10:31:45;94859.94;;;23.12;50.81
11347;BME280;5728;42.722;23.258;2023-05-08T10:34:18;94861.53;;;23.42;51.31
11347;BME280;5728;42.722;23.258;2023-05-08T10:36:46;94861.56;;;23.96;50.79
11347;BME280;5728;42.722;23.258;2023-05-08T10:39:13;94855.94;;;24.27;48.74
11347;BME280;5728;42.722;23.258;2023-05-08T10:41:41;94862.78;;;24.44;48.35
11347;BME280;5728;42.722;23.258;2023-05-08T10:44:08;94854.72;;;25.46;48.05
11347;BME280;5728;42.722;23.258;2023-05-08T10:46:41;94858.63;;;26.00;45.69
11347;BME280;5728;42.722;23.258;2023-05-08T10:49:18;94851.41;;;25.55;45.05
11347;BME280;5728;42.722;23.258;2023-05-08T10:51:52;94842.88;;;24.89;46.87
11347;BME280;5728;42.722;23.258;2023-05-08T10:54:27;94842.59;;;23.63;49.15
11347;BME280;5728;42.722;23.258;2023-05-08T10:57:07;94835.59;;;24.28;48.98
11347;BME280;5728;42.722;23.258;2023-05-08T10:59:35;94831.91;;;25.18;44.81
11347;BME280;5728;42.722;23.258;2023-05-08T11:02:05;94833.13;;;25.02;46.07
11347;BME280;5728;42.722;23.258;2023-05-08T11:04:34;94830.25;;;24.54;45.60
11347;BME280;5728;42.722;23.258;2023-05-08T11:07:01;94814.81;;;23.95;47.07
11347;BME280;5728;42.722;23.258;2023-05-08T11:09:43;94821.97;;;24.97;45.08
11347;BME280;5728;42.722;23.258;2023-05-08T11:12:19;94817.31;;;25.96;43.01
11347;BME280;5728;42.722;23.258;2023-05-08T11:14:54;94811.75;;;26.58;40.85
11347;BME280;5728;42.722;23.258;2023-05-08T11:17:23;94814.50;;;25.63;42.13
11347;BME280;5728;42.722;23.258;2023-05-08T11:19:56;94798.59;;;26.22;41.29
11347;BME280;5728;42.722;23.258;2023-05-08T11:22:28;94801.16;;;26.91;40.20
11347;BME280;5728;42.722;23.258;2023-05-08T11:24:57;94794.72;;;26.72;40.03
11347;BME280;5728;42.722;23.258;2023-05-08T11:30:34;94790.09;;;27.73;38.19
11347;BME280;5728;42.722;23.258;2023-05-08T11:33:25;94788.03;;;27.66;38.35
11347;BME280;5728;42.722;23.258;2023-05-08T11:35:57;94788.50;;;28.55;37.24
11347;BME280;5728;42.722;23.258;2023-05-08T11:38:29;94784.56;;;29.21;35.60
11347;BME280;5728;42.722;23.258;2023-05-08T11:41:01;94777.16;;;29.34;34.91
11347;BME280;5728;42.722;23.258;2023-05-08T11:46:34;94771.28;;;28.38;36.37
11347;BME280;5728;42.722;23.258;2023-05-08T11:49:03;94764.91;;;29.01;35.42
11347;BME280;5728;42.722;23.258;2023-05-08T11:51:32;94754.75;;;29.26;34.94
11347;BME280;5728;42.722;23.258;2023-05-08T11:53:59;94762.66;;;29.27;34.19
11347;BME280;5728;42.722;23.258;2023-05-08T11:56:26;94754.03;;;27.90;36.09
11347;BME280;5728;42.722;23.258;2023-05-08T11:59:01;94754.03;;;27.58;36.52
11347;BME280;5728;42.722;23.258;2023-05-08T12:01:29;94751.91;;;27.73;37.01
11347;BME280;5728;42.722;23.258;2023-05-08T12:04:04;94747.19;;;27.22;37.79
11347;BME280;5728;42.722;23.258;2023-05-08T12:06:34;94746.59;;;28.87;35.58
11347;BME280;5728;42.722;23.258;2023-05-08T12:09:02;94753.78;;;27.93;35.79
11347;BME280;5728;42.722;23.258;2023-05-08T12:11:30;94752.94;;;28.66;34.76
11347;BME280;5728;42.722;23.258;2023-05-08T12:13:57;94741.63;;;27.26;37.57
11347;BME280;5728;42.722;23.258;2023-05-08T12:16:24;94747.84;;;27.58;36.57
11347;BME280;5728;42.722;23.258;2023-05-08T12:18:52;94744.22;;;27.37;36.82
11347;BME280;5728;42.722;23.258;2023-05-08T12:21:21;94738.66;;;26.29;38.63
11347;BME280;5728;42.722;23.258;2023-05-08T12:23:49;94741.69;;;26.24;39.14
11347;BME280;5728;42.722;23.258;2023-05-08T12:26:16;94733.00;;;26.22;39.55
11347;BME280;5728;42.722;23.258;2023-05-08T12:28:43;94729.25;;;25.90;40.30
11347;BME280;5728;42.722;23.258;2023-05-08T12:31:11;94727.91;;;25.84;40.46
11347;BME280;5728;42.722;23.258;2023-05-08T12:33:37;94735.16;;;25.35;41.52
11347;BME280;5728;42.722;23.258;2023-05-08T12:36:05;94724.81;;;25.67;41.02
11347;BME280;5728;42.722;23.258;2023-05-08T12:38:32;94725.81;;;25.29;40.58
11347;BME280;5728;42.722;23.258;2023-05-08T12:41:01;94729.88;;;25.22;41.75
11347;BME280;5728;42.722;23.258;2023-05-08T12:43:32;94727.97;;;26.07;39.25
11347;BME280;5728;42.722;23.258;2023-05-08T12:46:00;94715.72;;;25.58;39.77
11347;BME280;5728;42.722;23.258;2023-05-08T12:48:28;94733.50;;;25.21;40.58
11347;BME280;5728;42.722;23.258;2023-05-08T12:51:01;94724.38;;;25.13;39.91
11347;BME280;5728;42.722;23.258;2023-05-08T12:53:29;94727.19;;;24.99;39.67
11347;BME280;5728;42.722;23.258;2023-05-08T12:56:02;94720.88;;;24.63;39.87
11347;BME280;5728;42.722;23.258;2023-05-08T12:58:33;94718.41;;;25.22;38.90
11347;BME280;5728;42.722;23.258;2023-05-08T13:01:07;94710.22;;;25.72;37.99
11347;BME280;5728;42.722;23.258;2023-05-08T13:03:38;94727.81;;;25.62;38.72
11347;BME280;5728;42.722;23.258;2023-05-08T13:06:05;94714.44;;;26.10;38.81
11347;BME280;5728;42.722;23.258;2023-05-08T13:08:33;94712.56;;;26.23;38.29
11347;BME280;5728;42.722;23.258;2023-05-08T13:11:01;94718.88;;;25.98;39.77
11347;BME280;5728;42.722;23.258;2023-05-08T13:13:32;94719.94;;;25.61;40.93
11347;BME280;5728;42.722;23.258;2023-05-08T13:16:02;94727.66;;;25.53;41.13
11347;BME280;5728;42.722;23.258;2023-05-08T13:18:28;94735.94;;;25.24;42.32
11347;BME280;5728;42.722;23.258;2023-05-08T13:20:56;94735.09;;;24.25;47.25